sensor_id;sensor_type;location;lat;lon;timestamp;P1;durP1;ratioP1;P2;durP2;ratioP2
9106;SDS011;4589;48.690;8.952;2023-02-18T00:01:13;1.27;;;1.17;;
9106;SDS011;4589;48.690;8.952;2023-02-18T00:03:40;1.40;;;1.30;;
9106;SDS011;4589;48.690;8.952;2023-02-18T00:06:09;1.80;;;1.20;;
9106;SDS011;4589;48.690;8.952;2023-02-18T00:08:36;1.20;;;1.10;;
9106;SDS011;4589;48.690;8.952;2023-02-18T00:11:03;1.50;;;1.30;;
9106;SDS011;4589;48.690;8.952;2023-02-18T00:13:30;1.40;;;1.20;;
9106;SDS011;4589;48.690;8.952;2023-02-18T00:16:00;1.10;;;1.00;;
9106;SDS011;4589;48.690;8.952;2023-02-18T00:18:29;1.63;;;1.30;;
9106;SDS011;4589;48.690;8.952;2023-02-18T00:20:56;1.40;;;1.13;;
9106;SDS011;4589;48.690;8.952;2023-02-18T00:23:22;1.20;;;1.10;;
9106;SDS011;4589;48.690;8.952;2023-02-18T00:25:48;1.50;;;1.23;;
9106;SDS011;4589;48.690;8.952;2023-02-18T00:28:14;1.20;;;1.10;;
9106;SDS011;4589;48.690;8.952;2023-02-18T00:30:40;1.40;;;1.30;;
9106;SDS011;4589;48.690;8.952;2023-02-18T00:33:06;3.53;;;1.20;;
9106;SDS011;4589;48.690;8.952;2023-02-18T00:35:32;1.60;;;1.50;;
9106;SDS011;4589;48.690;8.952;2023-02-18T00:37:58;1.50;;;1.20;;
9106;SDS011;4589;48.690;8.952;2023-02-18T00:40:24;1.50;;;1.40;;
9106;SDS011;4589;48.690;8.952;2023-02-18T00:42:50;2.57;;;1.30;;
9106;SDS011;4589;48.690;8.952;2023-02-18T00:45:16;1.50;;;1.23;;
9106;SDS011;4589;48.690;8.952;2023-02-18T00:47:42;1.27;;;1.17;;
9106;SDS011;4589;48.690;8.952;2023-02-18T00:50:08;1.30;;;1.20;;
9106;SDS011;4589;48.690;8.952;2023-02-18T00:52:34;1.53;;;1.43;;
9106;SDS011;4589;48.690;8.952;2023-02-18T00:54:59;1.63;;;1.40;;
9106;SDS011;4589;48.690;8.952;2023-02-18T00:57:25;1.47;;;1.37;;
9106;SDS011;4589;48.690;8.952;2023-02-18T00:59:51;1.53;;;1.30;;
9106;SDS011;4589;48.690;8.952;2023-02-18T01:02:17;1.40;;;1.30;;
9106;SDS011;4589;48.690;8.952;2023-02-18T01:04:43;1.63;;;1.50;;
9106;SDS011;4589;48.690;8.952;2023-02-18T01:07:09;1.70;;;1.60;;
9106;SDS011;4589;48.690;8.952;2023-02-18T01:09:35;1.80;;;1.40;;
9106;SDS011;4589;48.690;8.952;2023-02-18T01:12:01;1.87;;;1.43;;
9106;SDS011;4589;48.690;8.952;2023-02-18T01:14:27;1.33;;;1.23;;
9106;SDS011;4589;48.690;8.952;2023-02-18T01:16:53;1.50;;;1.23;;
9106;SDS011;4589;48.690;8.952;2023-02-18T01:19:19;1.50;;;1.40;;
9106;SDS011;4589;48.690;8.952;2023-02-18T01:21:44;2.07;;;1.80;;
9106;SDS011;4589;48.690;8.952;2023-02-18T01:24:10;1.60;;;1.50;;
9106;SDS011;4589;48.690;8.952;2023-02-18T01:26:35;2.07;;;1.50;;
9106;SDS011;4589;48.690;8.952;2023-02-18T01:29:01;2.00;;;1.83;;
9106;SDS011;4589;48.690;8.952;2023-02-18T01:31:26;2.10;;;1.90;;
9106;SDS011;4589;48.690;8.952;2023-02-18T01:33:52;2.67;;;1.77;;
9106;SDS011;4589;48.690;8.952;2023-02-18T01:36:18;1.67;;;1.57;;
9106;SDS011;4589;48.690;8.952;2023-02-18T01:38:44;1.70;;;1.60;;
9106;SDS011;4589;48.690;8.952;2023-02-18T01:41:10;1.97;;;1.77;;
9106;SDS011;4589;48.690;8.952;2023-02-18T01:43:35;2.03;;;1.70;;
9106;SDS011;4589;48.690;8.952;2023-02-18T01:46:06;1.87;;;1.63;;
9106;SDS011;4589;48.690;8.952;2023-02-18T01:48:42;2.60;;;2.10;;
9106;SDS011;4589;48.690;8.952;2023-02-18T01:51:18;1.60;;;1.50;;
9106;SDS011;4589;48.690;8.952;2023-02-18T01:56:43;2.10;;;1.90;;
9106;SDS011;4589;48.690;8.952;2023-02-18T01:59:11;1.93;;;1.73;;
9106;SDS011;4589;48.690;8.952;2023-02-18T02:01:41;2.07;;;1.87;;
9106;SDS011;4589;48.690;8.952;2023-02-18T02:04:08;2.40;;;2.20;;
9106;SDS011;4589;48.690;8.952;2023-02-18T02:06:34;2.00;;;1.80;;
9106;SDS011;4589;48.690;8.952;2023-02-18T02:09:01;2.03;;;1.90;;
9106;SDS011;4589;48.690;8.952;2023-02-18T02:14:21;1.90;;;1.80;;
9106;SDS011;4589;48.690;8.952;2023-02-18T02:37:11;2.53;;;1.90;;
9106;SDS011;4589;48.690;8.952;2023-02-18T02:40:02;1.90;;;1.70;;
9106;SDS011;4589;48.690;8.952;2023-02-18T02:45:36;5.90;;;2.00;;
9106;SDS011;4589;48.690;8.952;2023-02-18T02:48:12;2.10;;;1.90;;
9106;SDS011;4589;48.690;8.952;2023-02-18T02:53:27;2.03;;;1.83;;
9106;SDS011;4589;48.690;8.952;2023-02-18T02:55:55;1.67;;;1.57;;
9106;SDS011;4589;48.690;8.952;2023-02-18T02:58:21;1.73;;;1.63;;
9106;SDS011;4589;48.690;8.952;2023-02-18T03:06:51;1.90;;;1.57;;
9106;SDS011;4589;48.690;8.952;2023-02-18T03:09:58;1.50;;;1.40;;
9106;SDS011;4589;48.690;8.952;2023-02-18T03:12:52;1.90;;;1.80;;
9106;SDS011;4589;48.690;8.952;2023-02-18T03:15:36;2.23;;;1.73;;
9106;SDS011;4589;48.690;8.952;2023-02-18T03:18:24;1.80;;;1.70;;
9106;SDS011;4589;48.690;8.952;2023-02-18T03:21:10;2.17;;;1.80;;
9106;SDS011;4589;48.690;8.952;2023-02-18T03:23:45;1.60;;;1.50;;
9106;SDS011;4589;48.690;8.952;2023-02-18T03:26:21;3.17;;;1.93;;
9106;SDS011;4589;48.690;8.952;2023-02-18T03:28:49;2.10;;;1.90;;
9106;SDS011;4589;48.690;8.952;2023-02-18T03:31:17;1.53;;;1.40;;
9106;SDS011;4589;48.690;8.952;2023-02-18T03:33:47;2.00;;;1.80;;
9106;SDS011;4589;48.690;8.952;2023-02-18T03:36:16;1.80;;;1.70;;
9106;SDS011;4589;48.690;8.952;2023-02-18T03:38:44;2.20;;;1.90;;
9106;SDS011;4589;48.690;8.952;2023-02-18T03:41:17;2.33;;;2.13;;
9106;SDS011;4589;48.690;8.952;2023-02-18T03:43:50;2.20;;;1.90;;
9106;SDS011;4589;48.690;8.952;2023-02-18T03:46:17;2.17;;;1.70;;
9106;SDS011;4589;48.690;8.952;2023-02-18T03:48:43;2.23;;;2.00;;
9106;SDS011;4589;48.690;8.952;2023-02-18T03:51:09;2.23;;;2.03;;
9106;SDS011;4589;48.690;8.952;2023-02-18T03:53:34;2.10;;;1.90;;
9106;SDS011;4589;48.690;8.952;2023-02-18T03:56:00;2.17;;;1.97;;
9106;SDS011;4589;48.690;8.952;2023-02-18T03:58:26;2.23;;;2.00;;
9106;SDS011;4589;48.690;8.952;2023-02-18T04:00:51;1.90;;;1.70;;
9106;SDS011;4589;48.690;8.952;2023-02-18T04:03:17;2.10;;;1.90;;
9106;SDS011;4589;48.690;8.952;2023-02-18T04:05:43;2.50;;;1.83;;
9106;SDS011;4589;48.690;8.952;2023-02-18T04:08:09;3.20;;;2.00;;
9106;SDS011;4589;48.690;8.952;2023-02-18T04:10:35;1.97;;;1.80;;
9106;SDS011;4589;48.690;8.952;2023-02-18T04:13:00;2.03;;;1.83;;
9106;SDS011;4589;48.690;8.952;2023-02-18T04:15:26;1.97;;;1.87;;
9106;SDS011;4589;48.690;8.952;2023-02-18T04:17:53;2.07;;;1.97;;
9106;SDS011;4589;48.690;8.952;2023-02-18T04:20:19;2.10;;;1.90;;
9106;SDS011;4589;48.690;8.952;2023-02-18T04:22:46;1.77;;;1.67;;
9106;SDS011;4589;48.690;8.952;2023-02-18T04:25:12;3.43;;;2.10;;
9106;SDS011;4589;48.690;8.952;2023-02-18T04:27:38;1.80;;;1.70;;
9106;SDS011;4589;48.690;8.952;2023-02-18T04:30:04;2.87;;;2.40;;
9106;SDS011;4589;48.690;8.952;2023-02-18T04:32:30;2.40;;;2.07;;
9106;SDS011;4589;48.690;8.952;2023-02-18T04:34:55;1.90;;;1.80;;
9106;SDS011;4589;48.690;8.952;2023-02-18T04:37:21;2.10;;;2.00;;
9106;SDS011;4589;48.690;8.952;2023-02-18T04:39:47;2.70;;;2.30;;
9106;SDS011;4589;48.690;8.952;2023-02-18T04:42:13;2.83;;;2.53;;
9106;SDS011;4589;48.690;8.952;2023-02-18T04:44:39;2.57;;;2.30;;
9106;SDS011;4589;48.690;8.952;2023-02-18T04:47:05;1.93;;;1.80;;
9106;SDS011;4589;48.690;8.952;2023-02-18T04:49:31;2.07;;;1.93;;
9106;SDS011;4589;48.690;8.952;2023-02-18T04:51:57;2.10;;;1.90;;
9106;SDS011;4589;48.690;8.952;2023-02-18T04:54:22;2.20;;;2.00;;
9106;SDS011;4589;48.690;8.952;2023-02-18T04:56:48;2.10;;;1.87;;
9106;SDS011;4589;48.690;8.952;2023-02-18T04:59:14;1.73;;;1.63;;
9106;SDS011;4589;48.690;8.952;2023-02-18T05:01:40;2.20;;;2.00;;
9106;SDS011;4589;48.690;8.952;2023-02-18T05:04:06;1.73;;;1.63;;
9106;SDS011;4589;48.690;8.952;2023-02-18T05:06:31;3.33;;;2.10;;
9106;SDS011;4589;48.690;8.952;2023-02-18T05:08:57;2.23;;;2.00;;
9106;SDS011;4589;48.690;8.952;2023-02-18T05:11:23;2.70;;;2.50;;
9106;SDS011;4589;48.690;8.952;2023-02-18T05:13:49;2.20;;;1.93;;
9106;SDS011;4589;48.690;8.952;2023-02-18T05:16:15;2.20;;;2.00;;
9106;SDS011;4589;48.690;8.952;2023-02-18T05:18:40;1.60;;;1.50;;
9106;SDS011;4589;48.690;8.952;2023-02-18T05:21:06;3.00;;;1.57;;
9106;SDS011;4589;48.690;8.952;2023-02-18T05:23:32;2.83;;;2.10;;
9106;SDS011;4589;48.690;8.952;2023-02-18T05:25:58;2.20;;;2.00;;
9106;SDS011;4589;48.690;8.952;2023-02-18T05:28:24;2.40;;;2.17;;
9106;SDS011;4589;48.690;8.952;2023-02-18T05:30:49;1.87;;;1.77;;
9106;SDS011;4589;48.690;8.952;2023-02-18T05:33:15;4.13;;;1.87;;
9106;SDS011;4589;48.690;8.952;2023-02-18T05:35:40;4.50;;;1.80;;
9106;SDS011;4589;48.690;8.952;2023-02-18T05:38:06;2.47;;;1.63;;
9106;SDS011;4589;48.690;8.952;2023-02-18T05:40:33;2.07;;;1.80;;
9106;SDS011;4589;48.690;8.952;2023-02-18T05:42:59;2.90;;;1.93;;
9106;SDS011;4589;48.690;8.952;2023-02-18T05:45:25;1.60;;;1.50;;
9106;SDS011;4589;48.690;8.952;2023-02-18T05:47:50;2.00;;;1.80;;
9106;SDS011;4589;48.690;8.952;2023-02-18T05:50:16;2.10;;;1.90;;
9106;SDS011;4589;48.690;8.952;2023-02-18T05:52:41;2.37;;;1.90;;
9106;SDS011;4589;48.690;8.952;2023-02-18T05:55:07;2.03;;;1.87;;
9106;SDS011;4589;48.690;8.952;2023-02-18T05:57:33;2.40;;;2.20;;
9106;SDS011;4589;48.690;8.952;2023-02-18T05:59:59;2.47;;;2.27;;
9106;SDS011;4589;48.690;8.952;2023-02-18T06:02:25;2.17;;;1.90;;
9106;SDS011;4589;48.690;8.952;2023-02-18T06:04:51;2.37;;;2.13;;
9106;SDS011;4589;48.690;8.952;2023-02-18T06:07:17;2.47;;;2.27;;
9106;SDS011;4589;48.690;8.952;2023-02-18T06:09:44;2.30;;;2.10;;
9106;SDS011;4589;48.690;8.952;2023-02-18T06:12:10;2.20;;;1.93;;
9106;SDS011;4589;48.690;8.952;2023-02-18T06:14:36;2.13;;;1.93;;
9106;SDS011;4589;48.690;8.952;2023-02-18T06:17:06;2.57;;;2.23;;
9106;SDS011;4589;48.690;8.952;2023-02-18T06:19:36;2.90;;;2.20;;
9106;SDS011;4589;48.690;8.952;2023-02-18T06:22:02;2.30;;;2.10;;
9106;SDS011;4589;48.690;8.952;2023-02-18T06:24:28;3.13;;;2.13;;
9106;SDS011;4589;48.690;8.952;2023-02-18T06:26:54;3.23;;;2.10;;
9106;SDS011;4589;48.690;8.952;2023-02-18T06:29:20;2.67;;;2.47;;
9106;SDS011;4589;48.690;8.952;2023-02-18T06:31:46;2.70;;;2.30;;
9106;SDS011;4589;48.690;8.952;2023-02-18T06:34:11;4.23;;;2.57;;
9106;SDS011;4589;48.690;8.952;2023-02-18T06:36:37;4.07;;;2.27;;
9106;SDS011;4589;48.690;8.952;2023-02-18T06:39:04;2.53;;;2.33;;
9106;SDS011;4589;48.690;8.952;2023-02-18T06:41:30;2.23;;;2.00;;
9106;SDS011;4589;48.690;8.952;2023-02-18T06:43:56;2.33;;;1.97;;
9106;SDS011;4589;48.690;8.952;2023-02-18T06:46:21;2.47;;;2.17;;
9106;SDS011;4589;48.690;8.952;2023-02-18T06:48:47;3.23;;;2.43;;
9106;SDS011;4589;48.690;8.952;2023-02-18T06:51:13;2.43;;;2.13;;
9106;SDS011;4589;48.690;8.952;2023-02-18T06:53:40;2.90;;;2.60;;
9106;SDS011;4589;48.690;8.952;2023-02-18T06:56:07;2.93;;;2.63;;
9106;SDS011;4589;48.690;8.952;2023-02-18T06:58:33;2.53;;;2.20;;
9106;SDS011;4589;48.690;8.952;2023-02-18T07:00:59;3.80;;;2.37;;
9106;SDS011;4589;48.690;8.952;2023-02-18T07:03:25;2.40;;;2.20;;
9106;SDS011;4589;48.690;8.952;2023-02-18T07:05:51;2.50;;;2.30;;
9106;SDS011;4589;48.690;8.952;2023-02-18T07:08:17;3.07;;;2.37;;
9106;SDS011;4589;48.690;8.952;2023-02-18T07:10:42;2.27;;;1.90;;
9106;SDS011;4589;48.690;8.952;2023-02-18T07:13:08;2.50;;;2.30;;
9106;SDS011;4589;48.690;8.952;2023-02-18T07:15:33;2.40;;;1.93;;
9106;SDS011;4589;48.690;8.952;2023-02-18T07:17:59;2.20;;;2.00;;
9106;SDS011;4589;48.690;8.952;2023-02-18T07:20:25;2.20;;;1.90;;
9106;SDS011;4589;48.690;8.952;2023-02-18T07:22:51;2.13;;;1.93;;
9106;SDS011;4589;48.690;8.952;2023-02-18T07:25:17;2.33;;;2.13;;
9106;SDS011;4589;48.690;8.952;2023-02-18T07:27:43;2.73;;;2.20;;
9106;SDS011;4589;48.690;8.952;2023-02-18T07:30:09;3.37;;;2.60;;
9106;SDS011;4589;48.690;8.952;2023-02-18T07:32:35;2.07;;;1.87;;
9106;SDS011;4589;48.690;8.952;2023-02-18T07:35:01;3.20;;;2.47;;
9106;SDS011;4589;48.690;8.952;2023-02-18T07:37:27;2.97;;;1.97;;
9106;SDS011;4589;48.690;8.952;2023-02-18T07:39:53;2.80;;;1.70;;
9106;SDS011;4589;48.690;8.952;2023-02-18T07:42:19;2.80;;;2.50;;
9106;SDS011;4589;48.690;8.952;2023-02-18T07:44:45;3.20;;;2.50;;
9106;SDS011;4589;48.690;8.952;2023-02-18T07:47:12;2.73;;;2.50;;
9106;SDS011;4589;48.690;8.952;2023-02-18T07:49:39;3.00;;;2.63;;
9106;SDS011;4589;48.690;8.952;2023-02-18T07:52:05;3.17;;;2.87;;
9106;SDS011;4589;48.690;8.952;2023-02-18T07:54:30;2.30;;;2.10;;
9106;SDS011;4589;48.690;8.952;2023-02-18T07:56:56;2.50;;;2.17;;
9106;SDS011;4589;48.690;8.952;2023-02-18T07:59:21;2.30;;;2.10;;
9106;SDS011;4589;48.690;8.952;2023-02-18T08:01:47;2.33;;;1.90;;
9106;SDS011;4589;48.690;8.952;2023-02-18T08:04:13;2.37;;;2.17;;
9106;SDS011;4589;48.690;8.952;2023-02-18T08:06:40;2.20;;;1.57;;
9106;SDS011;4589;48.690;8.952;2023-02-18T08:09:08;2.53;;;1.80;;
9106;SDS011;4589;48.690;8.952;2023-02-18T08:11:34;2.30;;;2.10;;
9106;SDS011;4589;48.690;8.952;2023-02-18T08:14:00;2.53;;;1.90;;
9106;SDS011;4589;48.690;8.952;2023-02-18T08:16:26;2.10;;;1.77;;
9106;SDS011;4589;48.690;8.952;2023-02-18T08:18:52;2.00;;;1.80;;
9106;SDS011;4589;48.690;8.952;2023-02-18T08:21:18;3.10;;;2.10;;
9106;SDS011;4589;48.690;8.952;2023-02-18T08:23:45;2.17;;;1.63;;
9106;SDS011;4589;48.690;8.952;2023-02-18T08:26:12;2.97;;;2.27;;
9106;SDS011;4589;48.690;8.952;2023-02-18T08:28:38;1.93;;;1.77;;
9106;SDS011;4589;48.690;8.952;2023-02-18T08:31:04;1.60;;;1.50;;
9106;SDS011;4589;48.690;8.952;2023-02-18T08:33:30;2.23;;;1.70;;
9106;SDS011;4589;48.690;8.952;2023-02-18T08:35:55;1.63;;;1.30;;
9106;SDS011;4589;48.690;8.952;2023-02-18T08:38:22;1.97;;;1.83;;
9106;SDS011;4589;48.690;8.952;2023-02-18T08:40:48;1.80;;;1.50;;
9106;SDS011;4589;48.690;8.952;2023-02-18T08:43:15;1.60;;;1.50;;
9106;SDS011;4589;48.690;8.952;2023-02-18T08:45:41;3.00;;;1.70;;
9106;SDS011;4589;48.690;8.952;2023-02-18T08:48:09;2.33;;;1.47;;
9106;SDS011;4589;48.690;8.952;2023-02-18T08:50:36;1.90;;;1.63;;
9106;SDS011;4589;48.690;8.952;2023-02-18T08:53:02;2.67;;;1.80;;
9106;SDS011;4589;48.690;8.952;2023-02-18T08:55:39;2.13;;;1.90;;
9106;SDS011;4589;48.690;8.952;2023-02-18T08:58:04;1.77;;;1.47;;
9106;SDS011;4589;48.690;8.952;2023-02-18T09:00:30;1.70;;;1.60;;
9106;SDS011;4589;48.690;8.952;2023-02-18T09:02:56;2.10;;;1.63;;
9106;SDS011;4589;48.690;8.952;2023-02-18T09:05:22;1.90;;;1.63;;
9106;SDS011;4589;48.690;8.952;2023-02-18T09:07:48;1.83;;;1.67;;
9106;SDS011;4589;48.690;8.952;2023-02-18T09:10:13;2.13;;;1.80;;
9106;SDS011;4589;48.690;8.952;2023-02-18T09:12:39;1.67;;;1.53;;
9106;SDS011;4589;48.690;8.952;2023-02-18T09:15:05;2.17;;;1.60;;
9106;SDS011;4589;48.690;8.952;2023-02-18T09:17:31;1.80;;;1.60;;
9106;SDS011;4589;48.690;8.952;2023-02-18T09:19:57;2.47;;;1.57;;
9106;SDS011;4589;48.690;8.952;2023-02-18T09:22:23;1.60;;;1.30;;
9106;SDS011;4589;48.690;8.952;2023-02-18T09:24:49;2.03;;;1.60;;
9106;SDS011;4589;48.690;8.952;2023-02-18T09:27:15;1.57;;;1.47;;
9106;SDS011;4589;48.690;8.952;2023-02-18T09:29:40;1.70;;;1.60;;
9106;SDS011;4589;48.690;8.952;2023-02-18T09:32:06;1.70;;;1.50;;
9106;SDS011;4589;48.690;8.952;2023-02-18T09:34:33;1.60;;;1.50;;
9106;SDS011;4589;48.690;8.952;2023-02-18T09:37:00;2.47;;;1.67;;
9106;SDS011;4589;48.690;8.952;2023-02-18T09:39:26;1.73;;;1.63;;
9106;SDS011;4589;48.690;8.952;2023-02-18T09:41:52;1.63;;;1.50;;
9106;SDS011;4589;48.690;8.952;2023-02-18T09:44:25;1.90;;;1.70;;
9106;SDS011;4589;48.690;8.952;2023-02-18T09:47:12;4.13;;;1.60;;
9106;SDS011;4589;48.690;8.952;2023-02-18T09:49:46;2.27;;;1.80;;
9106;SDS011;4589;48.690;8.952;2023-02-18T09:52:19;1.80;;;1.30;;
9106;SDS011;4589;48.690;8.952;2023-02-18T09:54:51;1.47;;;1.37;;
9106;SDS011;4589;48.690;8.952;2023-02-18T09:59:55;1.67;;;1.47;;
9106;SDS011;4589;48.690;8.952;2023-02-18T10:02:24;2.47;;;1.73;;
9106;SDS011;4589;48.690;8.952;2023-02-18T10:04:50;1.80;;;1.40;;
9106;SDS011;4589;48.690;8.952;2023-02-18T10:07:28;1.60;;;1.50;;
9106;SDS011;4589;48.690;8.952;2023-02-18T10:09:56;1.60;;;1.50;;
9106;SDS011;4589;48.690;8.952;2023-02-18T10:12:25;1.53;;;1.43;;
9106;SDS011;4589;48.690;8.952;2023-02-18T10:14:55;1.60;;;1.50;;
9106;SDS011;4589;48.690;8.952;2023-02-18T10:17:24;1.87;;;1.60;;
9106;SDS011;4589;48.690;8.952;2023-02-18T10:19:52;2.13;;;1.73;;
9106;SDS011;4589;48.690;8.952;2023-02-18T10:22:19;2.50;;;1.53;;
9106;SDS011;4589;48.690;8.952;2023-02-18T10:24:57;2.70;;;1.80;;
9106;SDS011;4589;48.690;8.952;2023-02-18T10:27:30;1.50;;;1.20;;
9106;SDS011;4589;48.690;8.952;2023-02-18T10:30:03;1.43;;;1.27;;
9106;SDS011;4589;48.690;8.952;2023-02-18T10:32:45;2.03;;;1.53;;
9106;SDS011;4589;48.690;8.952;2023-02-18T10:38:03;1.40;;;1.30;;
9106;SDS011;4589;48.690;8.952;2023-02-18T10:40:57;1.77;;;1.30;;
9106;SDS011;4589;48.690;8.952;2023-02-18T10:43:31;1.70;;;1.10;;
9106;SDS011;4589;48.690;8.952;2023-02-18T10:46:24;1.60;;;1.50;;
9106;SDS011;4589;48.690;8.952;2023-02-18T10:51:32;2.07;;;1.50;;
9106;SDS011;4589;48.690;8.952;2023-02-18T10:54:01;1.83;;;1.50;;
9106;SDS011;4589;48.690;8.952;2023-02-18T10:58:59;1.37;;;1.20;;
9106;SDS011;4589;48.690;8.952;2023-02-18T11:01:33;3.87;;;1.37;;
9106;SDS011;4589;48.690;8.952;2023-02-18T11:04:25;2.23;;;1.57;;
9106;SDS011;4589;48.690;8.952;2023-02-18T11:07:01;2.03;;;1.20;;
9106;SDS011;4589;48.690;8.952;2023-02-18T11:09:33;2.20;;;2.00;;
9106;SDS011;4589;48.690;8.952;2023-02-18T11:12:11;1.90;;;1.60;;
9106;SDS011;4589;48.690;8.952;2023-02-18T11:14:47;1.50;;;1.40;;
9106;SDS011;4589;48.690;8.952;2023-02-18T11:17:29;1.70;;;1.50;;
9106;SDS011;4589;48.690;8.952;2023-02-18T11:19:57;1.73;;;1.63;;
9106;SDS011;4589;48.690;8.952;2023-02-18T11:22:29;1.67;;;1.57;;
9106;SDS011;4589;48.690;8.952;2023-02-18T11:24:58;2.30;;;1.83;;
9106;SDS011;4589;48.690;8.952;2023-02-18T11:27:37;1.70;;;1.50;;
9106;SDS011;4589;48.690;8.952;2023-02-18T11:30:53;1.60;;;1.40;;
9106;SDS011;4589;48.690;8.952;2023-02-18T11:32:59;1.40;;;1.30;;
9106;SDS011;4589;48.690;8.952;2023-02-18T11:35:47;1.93;;;1.63;;
9106;SDS011;4589;48.690;8.952;2023-02-18T11:38:42;1.50;;;1.40;;
9106;SDS011;4589;48.690;8.952;2023-02-18T11:41:12;1.70;;;1.40;;
9106;SDS011;4589;48.690;8.952;2023-02-18T11:43:42;1.20;;;1.10;;
9106;SDS011;4589;48.690;8.952;2023-02-18T11:46:11;1.50;;;1.40;;
9106;SDS011;4589;48.690;8.952;2023-02-18T11:48:38;2.83;;;1.40;;
9106;SDS011;4589;48.690;8.952;2023-02-18T11:51:04;4.40;;;1.40;;
9106;SDS011;4589;48.690;8.952;2023-02-18T11:53:34;1.77;;;1.57;;
9106;SDS011;4589;48.690;8.952;2023-02-18T11:56:04;2.50;;;1.40;;
9106;SDS011;4589;48.690;8.952;2023-02-18T11:58:40;2.23;;;1.30;;
9106;SDS011;4589;48.690;8.952;2023-02-18T12:01:14;1.90;;;1.60;;
9106;SDS011;4589;48.690;8.952;2023-02-18T12:03:47;1.70;;;1.30;;
9106;SDS011;4589;48.690;8.952;2023-02-18T12:06:22;1.40;;;1.30;;
9106;SDS011;4589;48.690;8.952;2023-02-18T12:08:54;1.33;;;1.23;;
9106;SDS011;4589;48.690;8.952;2023-02-18T12:11:29;1.87;;;1.57;;
9106;SDS011;4589;48.690;8.952;2023-02-18T12:13:58;1.90;;;1.70;;
9106;SDS011;4589;48.690;8.952;2023-02-18T12:19:56;1.77;;;1.63;;
9106;SDS011;4589;48.690;8.952;2023-02-18T12:30:36;1.67;;;1.53;;
9106;SDS011;4589;48.690;8.952;2023-02-18T12:39:05;1.83;;;1.70;;
9106;SDS011;4589;48.690;8.952;2023-02-18T12:47:12;2.17;;;1.63;;
9106;SDS011;4589;48.690;8.952;2023-02-18T12:53:29;1.60;;;1.50;;
9106;SDS011;4589;48.690;8.952;2023-02-18T13:03:52;2.30;;;1.80;;
9106;SDS011;4589;48.690;8.952;2023-02-18T13:06:22;2.70;;;1.70;;
9106;SDS011;4589;48.690;8.952;2023-02-18T13:17:53;2.00;;;1.63;;
9106;SDS011;4589;48.690;8.952;2023-02-18T13:23:15;1.77;;;1.50;;
9106;SDS011;4589;48.690;8.952;2023-02-18T13:25:43;2.37;;;2.17;;
9106;SDS011;4589;48.690;8.952;2023-02-18T13:30:44;2.30;;;1.87;;
9106;SDS011;4589;48.690;8.952;2023-02-18T13:41:03;2.00;;;1.80;;
9106;SDS011;4589;48.690;8.952;2023-02-18T13:43:31;1.73;;;1.63;;
9106;SDS011;4589;48.690;8.952;2023-02-18T13:49:21;1.80;;;1.70;;
9106;SDS011;4589;48.690;8.952;2023-02-18T13:51:28;2.17;;;1.97;;
9106;SDS011;4589;48.690;8.952;2023-02-18T13:56:44;4.20;;;2.57;;
9106;SDS011;4589;48.690;8.952;2023-02-18T13:59:35;2.00;;;1.70;;
9106;SDS011;4589;48.690;8.952;2023-02-18T14:02:27;2.30;;;1.93;;
9106;SDS011;4589;48.690;8.952;2023-02-18T14:18:06;3.00;;;2.70;;
9106;SDS011;4589;48.690;8.952;2023-02-18T14:33:38;2.20;;;1.80;;
9106;SDS011;4589;48.690;8.952;2023-02-18T14:38:56;1.87;;;1.70;;
9106;SDS011;4589;48.690;8.952;2023-02-18T14:41:46;2.30;;;2.10;;
9106;SDS011;4589;48.690;8.952;2023-02-18T14:52:17;4.60;;;1.80;;
9106;SDS011;4589;48.690;8.952;2023-02-18T14:54:49;3.93;;;1.80;;
9106;SDS011;4589;48.690;8.952;2023-02-18T14:57:16;2.10;;;1.67;;
9106;SDS011;4589;48.690;8.952;2023-02-18T14:59:45;1.83;;;1.73;;
9106;SDS011;4589;48.690;8.952;2023-02-18T15:02:21;7.00;;;4.53;;
9106;SDS011;4589;48.690;8.952;2023-02-18T15:04:51;5.50;;;4.27;;
9106;SDS011;4589;48.690;8.952;2023-02-18T15:07:18;10.30;;;6.20;;
9106;SDS011;4589;48.690;8.952;2023-02-18T15:09:49;6.90;;;2.93;;
9106;SDS011;4589;48.690;8.952;2023-02-18T15:12:18;2.53;;;2.33;;
9106;SDS011;4589;48.690;8.952;2023-02-18T15:14:47;3.00;;;1.90;;
9106;SDS011;4589;48.690;8.952;2023-02-18T15:17:17;2.50;;;1.60;;
9106;SDS011;4589;48.690;8.952;2023-02-18T15:19:52;1.50;;;1.40;;
9106;SDS011;4589;48.690;8.952;2023-02-18T15:22:21;2.03;;;1.93;;
9106;SDS011;4589;48.690;8.952;2023-02-18T15:24:49;3.33;;;1.60;;
9106;SDS011;4589;48.690;8.952;2023-02-18T15:30:35;1.70;;;1.57;;
9106;SDS011;4589;48.690;8.952;2023-02-18T15:32:57;2.03;;;1.67;;
9106;SDS011;4589;48.690;8.952;2023-02-18T15:35:30;1.77;;;1.67;;
9106;SDS011;4589;48.690;8.952;2023-02-18T15:37:57;1.60;;;1.50;;
9106;SDS011;4589;48.690;8.952;2023-02-18T15:40:26;3.43;;;1.80;;
9106;SDS011;4589;48.690;8.952;2023-02-18T15:42:56;2.67;;;2.40;;
9106;SDS011;4589;48.690;8.952;2023-02-18T15:45:35;6.03;;;2.10;;
9106;SDS011;4589;48.690;8.952;2023-02-18T15:48:05;1.80;;;1.67;;
9106;SDS011;4589;48.690;8.952;2023-02-18T15:50:35;1.90;;;1.70;;
9106;SDS011;4589;48.690;8.952;2023-02-18T15:53:11;2.37;;;1.80;;
9106;SDS011;4589;48.690;8.952;2023-02-18T15:55:40;2.00;;;1.80;;
9106;SDS011;4589;48.690;8.952;2023-02-18T15:58:11;3.30;;;2.20;;
9106;SDS011;4589;48.690;8.952;2023-02-18T16:03:24;1.80;;;1.70;;
9106;SDS011;4589;48.690;8.952;2023-02-18T16:06:07;2.13;;;1.93;;
9106;SDS011;4589;48.690;8.952;2023-02-18T16:11:30;1.90;;;1.70;;
9106;SDS011;4589;48.690;8.952;2023-02-18T16:14:02;2.80;;;1.70;;
9106;SDS011;4589;48.690;8.952;2023-02-18T16:16:31;3.03;;;2.00;;
9106;SDS011;4589;48.690;8.952;2023-02-18T16:18:59;2.37;;;1.83;;
9106;SDS011;4589;48.690;8.952;2023-02-18T16:21:29;2.97;;;2.27;;
9106;SDS011;4589;48.690;8.952;2023-02-18T16:24:20;2.33;;;1.90;;
9106;SDS011;4589;48.690;8.952;2023-02-18T16:26:57;1.73;;;1.63;;
9106;SDS011;4589;48.690;8.952;2023-02-18T16:29:26;2.20;;;2.00;;
9106;SDS011;4589;48.690;8.952;2023-02-18T16:32:04;4.53;;;2.07;;
9106;SDS011;4589;48.690;8.952;2023-02-18T16:34:30;2.60;;;2.33;;
9106;SDS011;4589;48.690;8.952;2023-02-18T16:36:56;2.70;;;1.83;;
9106;SDS011;4589;48.690;8.952;2023-02-18T16:39:40;2.83;;;2.20;;
9106;SDS011;4589;48.690;8.952;2023-02-18T16:42:10;3.23;;;2.43;;
9106;SDS011;4589;48.690;8.952;2023-02-18T16:44:37;3.17;;;1.70;;
9106;SDS011;4589;48.690;8.952;2023-02-18T16:47:03;2.43;;;1.83;;
9106;SDS011;4589;48.690;8.952;2023-02-18T16:49:29;2.57;;;2.37;;
9106;SDS011;4589;48.690;8.952;2023-02-18T16:51:54;2.23;;;2.00;;
9106;SDS011;4589;48.690;8.952;2023-02-18T16:54:20;4.80;;;2.00;;
9106;SDS011;4589;48.690;8.952;2023-02-18T16:56:46;2.70;;;2.00;;
9106;SDS011;4589;48.690;8.952;2023-02-18T16:59:12;2.23;;;2.03;;
9106;SDS011;4589;48.690;8.952;2023-02-18T17:01:42;3.10;;;1.97;;
9106;SDS011;4589;48.690;8.952;2023-02-18T17:04:09;2.83;;;1.87;;
9106;SDS011;4589;48.690;8.952;2023-02-18T17:06:37;1.97;;;1.83;;
9106;SDS011;4589;48.690;8.952;2023-02-18T17:09:13;2.53;;;2.20;;
9106;SDS011;4589;48.690;8.952;2023-02-18T17:11:41;4.13;;;2.17;;
9106;SDS011;4589;48.690;8.952;2023-02-18T17:14:10;2.50;;;1.87;;
9106;SDS011;4589;48.690;8.952;2023-02-18T17:16:38;3.90;;;2.27;;
9106;SDS011;4589;48.690;8.952;2023-02-18T17:19:03;9.20;;;4.47;;
9106;SDS011;4589;48.690;8.952;2023-02-18T17:21:29;8.93;;;4.83;;
9106;SDS011;4589;48.690;8.952;2023-02-18T17:23:55;3.20;;;2.90;;
9106;SDS011;4589;48.690;8.952;2023-02-18T17:26:25;3.20;;;2.83;;
9106;SDS011;4589;48.690;8.952;2023-02-18T17:28:54;3.07;;;2.77;;
9106;SDS011;4589;48.690;8.952;2023-02-18T17:31:22;2.33;;;2.13;;
9106;SDS011;4589;48.690;8.952;2023-02-18T17:33:51;3.10;;;2.80;;
9106;SDS011;4589;48.690;8.952;2023-02-18T17:36:20;2.60;;;2.20;;
9106;SDS011;4589;48.690;8.952;2023-02-18T17:38:46;2.40;;;2.20;;
9106;SDS011;4589;48.690;8.952;2023-02-18T17:41:13;2.80;;;2.60;;
9106;SDS011;4589;48.690;8.952;2023-02-18T17:43:39;3.00;;;2.40;;
9106;SDS011;4589;48.690;8.952;2023-02-18T17:46:08;2.57;;;2.37;;
9106;SDS011;4589;48.690;8.952;2023-02-18T17:48:36;3.77;;;3.30;;
9106;SDS011;4589;48.690;8.952;2023-02-18T17:51:02;5.10;;;2.80;;
9106;SDS011;4589;48.690;8.952;2023-02-18T17:53:30;2.90;;;2.70;;
9106;SDS011;4589;48.690;8.952;2023-02-18T17:55:55;3.47;;;2.70;;
9106;SDS011;4589;48.690;8.952;2023-02-18T17:58:21;3.00;;;2.80;;
9106;SDS011;4589;48.690;8.952;2023-02-18T18:00:49;2.80;;;2.60;;
9106;SDS011;4589;48.690;8.952;2023-02-18T18:03:17;3.37;;;2.30;;